createdAt,value
2019-02-21T00:00:43.485Z,40.30
2019-02-21T00:05:45.135Z,42.07
2019-02-21T00:10:46.526Z,29.83
2019-02-21T00:15:48.045Z,41.10
2019-02-21T00:20:49.172Z,44.83
2019-02-21T00:25:52.086Z,41.87
2019-02-21T00:30:53.268Z,37.53
2019-02-21T00:35:55.029Z,39.13
2019-02-21T00:40:56.332Z,42.13
2019-02-21T00:45:57.505Z,43.53
2019-02-21T00:50:58.686Z,44.50
2019-02-21T00:56:00.650Z,41.43
2019-02-21T01:01:01.857Z,39.70
2019-02-21T01:06:03.184Z,30.27
2019-02-21T01:11:05.240Z,45.27
2019-02-21T01:16:06.851Z,42.73
2019-02-21T01:21:08.222Z,46.40
2019-02-21T01:26:09.565Z,36.20
2019-02-21T01:31:11.243Z,47.73
2019-02-21T01:36:12.636Z,40.60
2019-02-21T01:41:16.157Z,35.53
2019-02-21T01:46:17.629Z,35.47
2019-02-21T01:51:18.962Z,37.37
2019-02-21T01:56:20.827Z,35.17
2019-02-21T02:01:22.159Z,31.70
2019-02-21T02:06:23.701Z,30.00
2019-02-21T02:11:25.412Z,36.40
2019-02-21T02:16:26.715Z,27.87
2019-02-21T02:21:27.922Z,31.90
2019-02-21T02:26:29.378Z,34.07
2019-02-21T02:31:30.841Z,31.13
2019-02-21T02:36:32.168Z,33.30
2019-02-21T02:41:33.367Z,30.70
2019-02-21T02:46:35.171Z,32.40
2019-02-21T02:51:36.756Z,32.40
2019-02-21T02:56:38.153Z,31.60
2019-02-21T03:01:39.436Z,28.20
2019-02-21T03:06:41.146Z,31.43
2019-02-21T03:11:42.421Z,33.13
2019-02-21T03:16:43.609Z,30.40
2019-02-21T03:21:44.908Z,24.90
2019-02-21T03:26:46.575Z,34.77
2019-02-21T03:31:54.404Z,32.57
2019-02-21T03:36:51.435Z,32.40
2019-02-21T03:41:52.829Z,30.10
2019-02-21T03:46:54.471Z,42.60
2019-02-21T03:51:55.701Z,42.37
2019-02-21T03:56:56.975Z,40.30
2019-02-21T04:02:05.289Z,45.93
2019-02-21T04:07:01.433Z,42.63
2019-02-21T04:12:02.823Z,46.57
2019-02-21T04:17:04.475Z,48.70
2019-02-21T04:22:05.698Z,48.10
2019-02-21T04:27:07.774Z,39.53
2019-02-21T04:32:16.686Z,51.40
2019-02-21T04:37:12.512Z,46.77
2019-02-21T04:42:13.598Z,53.27
2019-02-21T04:47:14.875Z,55.40
2019-02-21T04:52:16.065Z,48.70
2019-02-21T04:57:17.347Z,51.10
2019-02-21T05:02:28.414Z,49.67
2019-02-21T05:07:21.703Z,53.57
2019-02-21T05:12:22.906Z,46.77
2019-02-21T05:17:30.201Z,49.53
2019-02-21T05:22:31.619Z,52.67
2019-02-21T05:27:33.794Z,54.17
2019-02-21T05:32:40.955Z,51.83
2019-02-21T05:37:42.519Z,46.83
2019-02-21T05:42:51.692Z,49.17
2019-02-21T05:47:54.780Z,48.60
2019-02-21T05:53:07.312Z,55.80
2019-02-21T05:58:13.150Z,50.67
2019-02-21T06:03:35.951Z,46.07
2019-02-21T06:08:47.169Z,43.00
2019-02-21T06:14:05.810Z,41.77
2019-02-21T06:19:14.925Z,46.80
2019-02-21T06:24:27.699Z,49.40
2019-02-21T06:29:33.878Z,51.00
2019-02-21T06:34:34.691Z,42.90
2019-02-21T06:39:35.886Z,43.70
2019-02-21T06:44:38.022Z,48.20
2019-02-21T06:49:39.489Z,45.27
2019-02-21T06:54:41.596Z,45.23
2019-02-21T06:59:45.318Z,41.10
2019-02-21T07:04:46.061Z,52.70
2019-02-21T07:09:47.245Z,51.53
2019-02-21T07:14:48.652Z,42.17
2019-02-21T07:19:50.332Z,48.03
2019-02-21T07:24:54.166Z,46.17
2019-02-21T07:29:55.679Z,45.60
2019-02-21T07:34:57.108Z,43.90
2019-02-21T07:39:58.282Z,41.67
2019-02-21T07:44:59.860Z,42.10
2019-02-21T07:50:01.551Z,45.30
2019-02-21T07:55:04.731Z,39.53
2019-02-21T08:00:11.752Z,42.30
2019-02-21T08:05:13.130Z,46.37
2019-02-21T08:10:14.830Z,45.93
2019-02-21T08:15:16.104Z,41.03
2019-02-21T08:20:17.402Z,43.30
2019-02-21T08:25:19.367Z,40.10
2019-02-21T08:30:21.364Z,42.13
2019-02-21T08:35:22.545Z,40.00
2019-02-21T08:40:25.085Z,48.20
2019-02-21T08:45:26.612Z,41.50
2019-02-21T08:50:27.926Z,39.90
2019-02-21T08:55:29.218Z,31.23
2019-02-21T09:00:31.728Z,36.50
2019-02-21T09:05:33.238Z,33.37
2019-02-21T09:10:35.447Z,36.50
2019-02-21T09:15:36.758Z,36.43
2019-02-21T09:20:38.165Z,35.83
2019-02-21T09:25:39.384Z,30.30
2019-02-21T09:30:40.708Z,35.67
2019-02-21T09:35:42.085Z,36.73
2019-02-21T09:40:43.757Z,35.20
2019-02-21T09:45:45.037Z,36.90
2019-02-21T09:50:47.138Z,34.50
2019-02-21T09:55:50.246Z,40.13
2019-02-21T10:00:51.859Z,40.30
2019-02-21T10:05:53.055Z,36.60
2019-02-21T10:10:54.427Z,37.67
2019-02-21T10:15:55.634Z,43.33
2019-02-21T10:20:56.887Z,35.00
2019-02-21T10:25:57.966Z,37.73
2019-02-21T10:30:59.405Z,38.43
2019-02-21T10:36:00.738Z,36.53
2019-02-21T10:41:02.228Z,37.57
2019-02-21T10:46:03.413Z,40.80
2019-02-21T10:51:04.883Z,45.13
2019-02-21T10:56:06.175Z,41.83
2019-02-21T11:01:07.726Z,38.37
2019-02-21T11:06:09.073Z,39.97
2019-02-21T11:11:10.417Z,36.73
2019-02-21T11:16:11.984Z,38.50
2019-02-21T11:21:13.822Z,39.73
2019-02-21T11:26:16.107Z,36.30
2019-02-21T11:31:18.169Z,44.03
2019-02-21T11:36:19.907Z,45.20
2019-02-21T11:41:21.683Z,38.23
2019-02-21T11:46:23.766Z,43.43
2019-02-21T11:51:25.852Z,44.20
2019-02-21T11:56:28.349Z,48.13
2019-02-21T12:01:30.126Z,46.80
2019-02-21T12:06:31.901Z,44.10
2019-02-21T12:11:33.614Z,42.77
2019-02-21T12:16:37.563Z,40.20
2019-02-21T12:21:39.243Z,50.70
2019-02-21T12:26:40.846Z,49.43
2019-02-21T12:31:42.659Z,52.67
2019-02-21T12:36:44.375Z,53.60
2019-02-21T12:41:46.189Z,55.20
2019-02-21T12:46:48.166Z,51.50
2019-02-21T12:51:50.379Z,47.87
2019-02-21T12:56:52.438Z,52.00
2019-02-21T13:01:54.213Z,56.93
2019-02-21T13:06:55.996Z,53.60
2019-02-21T13:11:58.036Z,55.13
2019-02-21T13:17:01.393Z,51.77
2019-02-21T13:22:03.266Z,55.63
2019-02-21T13:27:04.901Z,51.90
2019-02-21T13:32:08.287Z,54.40
2019-02-21T13:37:09.932Z,53.60
2019-02-21T13:42:11.917Z,52.27
2019-02-21T13:47:13.628Z,53.00
2019-02-21T13:52:15.368Z,49.93
2019-02-21T13:57:17.338Z,50.17
2019-02-21T14:02:19.637Z,48.77
2019-02-21T14:07:21.377Z,52.00
2019-02-21T14:12:23.155Z,45.90
2019-02-21T14:17:25.152Z,47.70
2019-02-21T14:22:27.567Z,47.00
2019-02-21T14:27:31.735Z,49.30
2019-02-21T14:32:33.555Z,47.07
2019-02-21T14:37:35.148Z,39.70
2019-02-21T14:42:36.821Z,46.67
2019-02-21T14:47:46.489Z,48.43
2019-02-21T14:53:00.661Z,43.87
2019-02-21T14:58:02.855Z,45.30
2019-02-21T15:03:04.974Z,45.20
2019-02-21T15:08:06.742Z,41.00
2019-02-21T15:13:08.848Z,47.00
2019-02-21T15:18:11.345Z,46.50
2019-02-21T15:23:13.328Z,42.53
2019-02-21T15:28:14.996Z,47.47
2019-02-21T15:33:17.517Z,47.27
2019-02-21T15:38:20.119Z,58.00
2019-02-21T15:43:22.173Z,52.03
2019-02-21T15:48:23.990Z,62.77
2019-02-21T15:53:25.797Z,56.47
2019-02-21T15:58:31.384Z,67.60
2019-02-21T16:03:33.564Z,69.43
2019-02-21T16:08:35.341Z,59.47
2019-02-21T16:13:37.373Z,61.17
2019-02-21T16:18:39.261Z,63.50
2019-02-21T16:23:41.319Z,65.77
2019-02-21T16:28:43.064Z,58.63
2019-02-21T16:33:45.241Z,47.93
2019-02-21T16:38:46.979Z,60.60
2019-02-21T16:43:48.762Z,57.47
2019-02-21T16:48:50.530Z,63.97
2019-02-21T16:53:52.272Z,60.20
2019-02-21T16:58:58.856Z,67.40
2019-02-21T17:04:01.025Z,60.03
2019-02-21T17:09:04.679Z,71.97
2019-02-21T17:14:06.532Z,84.03
2019-02-21T17:19:08.307Z,91.90
2019-02-21T17:24:10.083Z,75.57
2019-02-21T17:29:11.734Z,91.70
2019-02-21T17:34:13.806Z,76.63
2019-02-21T17:39:15.545Z,73.43
2019-02-21T17:44:17.266Z,70.53
2019-02-21T17:49:18.992Z,56.80
2019-02-21T17:54:20.914Z,55.07
2019-02-21T17:59:22.657Z,65.27
2019-02-21T18:04:24.923Z,60.87
2019-02-21T18:09:26.808Z,55.10
2019-02-21T18:14:28.684Z,50.50
2019-02-21T18:19:31.815Z,54.57
2019-02-21T18:24:38.200Z,60.90
2019-02-21T18:29:40.283Z,68.20
2019-02-21T18:34:42.799Z,62.73
2019-02-21T18:39:44.782Z,60.37
2019-02-21T18:44:46.749Z,62.90
2019-02-21T18:49:48.632Z,61.50
2019-02-21T18:54:50.925Z,56.80
2019-02-21T18:59:53.227Z,56.87
2019-02-21T19:04:55.513Z,58.30
2019-02-21T19:09:57.725Z,43.30
2019-02-21T19:14:59.658Z,49.07
2019-02-21T19:20:01.754Z,45.23
2019-02-21T19:25:05.595Z,40.27
2019-02-21T19:30:29.080Z,43.63
2019-02-21T19:35:31.599Z,47.90
2019-02-21T19:40:33.992Z,43.03
2019-02-21T19:45:36.092Z,41.67
2019-02-21T19:50:38.183Z,47.87
2019-02-21T19:55:40.171Z,46.10
2019-02-21T20:00:42.383Z,54.30
2019-02-21T20:05:44.397Z,43.87
2019-02-21T20:10:46.701Z,38.17
2019-02-21T20:15:48.627Z,39.70
2019-02-21T20:20:52.066Z,40.40
2019-02-21T20:25:54.077Z,40.17
2019-02-21T20:30:55.929Z,45.80
2019-02-21T20:35:58.776Z,43.47
2019-02-21T20:41:01.809Z,45.97
2019-02-21T20:46:05.227Z,38.40
2019-02-21T20:51:07.129Z,39.27
2019-02-21T20:56:08.906Z,41.67
2019-02-21T21:01:12.543Z,34.73
2019-02-21T21:06:15.214Z,43.40
2019-02-21T21:11:16.904Z,42.43
2019-02-21T21:16:18.990Z,42.77
2019-02-21T21:21:21.094Z,46.40
2019-02-21T21:26:23.397Z,46.63
2019-02-21T21:31:25.044Z,37.50
2019-02-21T21:36:29.875Z,38.27
2019-02-21T21:41:31.780Z,42.17
2019-02-21T21:46:33.522Z,36.83
2019-02-21T21:51:35.349Z,41.57
2019-02-21T21:56:37.076Z,36.80
2019-02-21T22:01:38.933Z,37.27
2019-02-21T22:06:40.729Z,35.53
2019-02-21T22:11:42.513Z,37.37
2019-02-21T22:16:44.410Z,38.97
2019-02-21T22:21:46.216Z,39.03
2019-02-21T22:26:48.318Z,38.27
2019-02-21T22:31:50.128Z,35.47
2019-02-21T22:36:55.415Z,40.67
2019-02-21T22:41:58.352Z,38.30
2019-02-21T22:47:00.039Z,40.10
2019-02-21T22:52:01.791Z,40.93
2019-02-21T22:57:03.995Z,33.33
2019-02-21T23:02:05.797Z,33.80
2019-02-21T23:07:14.863Z,29.00
2019-02-21T23:12:17.565Z,26.43
2019-02-21T23:17:19.833Z,30.17
2019-02-21T23:22:21.607Z,28.77
2019-02-21T23:27:25.556Z,33.20
2019-02-21T23:32:27.201Z,37.30
2019-02-21T23:37:29.297Z,30.87
2019-02-21T23:42:31.578Z,34.70
2019-02-21T23:47:33.373Z,29.83
2019-02-21T23:52:35.125Z,38.70
2019-02-21T23:57:37.307Z,34.30
